Aeroporto :
LOGIN :

Iscrizione | Disclaimer

   EN    FR    IT 

 










Sommario :    VFR   VFR Marginale   IFR   IFR Intensivo   IFR Molto Intensivo
Visibilità : 
Base nubi : 
>= 8 km
>= 3000ft
5 / 8 km
1000 / 3000 ft
1500m / 5 km
500 / 1000 ft
800 / 1500m
200 / 500 ft
< 800m
< 200 ft
Simboli :   Temporali  Nebbia  Neve Forte  Precipitazioni Forti  Vento > 20 kt
SIGMETs :   Varie  Temporali  Ghiacco  Turbolenza  Onda orograficha  Ceneri Vulcaniche






- Altitudine del aeroporto : 97 ft
- Codice IATA : EBJ


EKEB - Esbjerg

ULTIMO METAR :
  • 110450Z AUTO 23009KT 190V260 5000 -SHRA BKN011/// 08/07 Q1001

METARs OBSOLETI :
  • 110420Z AUTO 21010KT 9000 SCT008/// BKN033/// BKN082/// 08/07 Q1001
  • 110350Z AUTO 20012KT 7000 -RA BKN005/// 08/07 Q1001
  • 110320Z AUTO 19016KT 5000 -RA OVC006/// 07/06 Q1000
  • 110250Z AUTO 19017KT 5000 -SHRA OVC008/// 07/06 Q1000
  • 110220Z AUTO 18016G30KT 150V210 4400 -SHRA BR OVC006/// 06/05 Q1001

TAF TAF EKEB
Valido dal 11 a 04 ore il 11 a 12 ore UTC


110345Z 1104/1112 18015KT 9999 BKN015
TEMPO 1104/1105 18020G30KT 4000 RADZ BKN006
BECMG 1106/1108 23008KT



MetMap, La meteo Aeronautica in un colpo d'occhio ! - Copyright ORBIFLY Dicembre 2007 - Disclaimer

ORBIFLY MET'MAP TEAM :

Programmazione e sviluppo : Alexandra Zaïnal
Concezione : Baudouin d'Aumeries
Aiuto per la programmazione : Marc-Olivier Méhu
Supporto tecnico e logistico : Manuel Goepfert
Aiuto per la traduzione : Arnaldo La Scala

Contatto : metmap@orbifly.com




FONTI E CREDITI :

   NOAA